createdAt,value
2023-03-19T00:02:02.069Z,3.57
2023-03-19T00:04:33.652Z,3.57
2023-03-19T00:07:01.650Z,3.33
2023-03-19T00:09:29.288Z,3.43
2023-03-19T00:11:56.928Z,3.40
2023-03-19T00:14:25.566Z,3.37
2023-03-19T00:16:53.585Z,3.13
2023-03-19T00:19:21.573Z,3.50
2023-03-19T00:21:48.964Z,3.53
2023-03-19T00:24:17.567Z,3.40
2023-03-19T00:26:45.410Z,2.97
2023-03-19T00:29:13.167Z,3.20
2023-03-19T00:31:41.821Z,3.20
2023-03-19T00:34:09.965Z,3.50
2023-03-19T00:36:37.562Z,3.00
2023-03-19T00:39:05.692Z,3.83
2023-03-19T00:41:33.969Z,4.13
2023-03-19T00:44:01.374Z,3.40
2023-03-19T00:46:28.844Z,4.03
2023-03-19T00:48:56.741Z,3.40
2023-03-19T00:51:24.413Z,2.90
2023-03-19T00:53:52.452Z,3.33
2023-03-19T00:56:20.648Z,3.70
2023-03-19T00:58:48.189Z,3.50
2023-03-19T01:01:17.045Z,4.03
2023-03-19T01:03:45.204Z,3.60
2023-03-19T01:06:13.347Z,4.37
2023-03-19T01:08:40.808Z,3.83
2023-03-19T01:11:09.642Z,3.40
2023-03-19T01:13:37.163Z,3.70
2023-03-19T01:16:04.568Z,3.87
2023-03-19T01:18:31.966Z,4.00
2023-03-19T01:20:59.562Z,4.30
2023-03-19T01:23:26.919Z,4.10
2023-03-19T01:25:54.324Z,3.60
2023-03-19T01:28:22.493Z,4.10
2023-03-19T01:30:49.949Z,3.97
2023-03-19T01:33:18.161Z,3.23
2023-03-19T01:35:48.306Z,3.43
2023-03-19T01:38:15.963Z,4.07
2023-03-19T01:40:49.566Z,3.57
2023-03-19T01:43:17.603Z,3.83
2023-03-19T01:45:45.852Z,4.00
2023-03-19T01:48:25.194Z,3.57
2023-03-19T01:50:55.481Z,3.33
2023-03-19T01:53:28.922Z,3.53
2023-03-19T01:55:58.324Z,4.30
2023-03-19T01:58:26.837Z,4.50
2023-03-19T02:00:54.680Z,4.27
2023-03-19T02:03:22.717Z,4.63
2023-03-19T02:05:51.722Z,4.13
2023-03-19T02:08:20.478Z,4.80
2023-03-19T02:10:49.127Z,4.57
2023-03-19T02:13:16.782Z,4.43
2023-03-19T02:15:44.351Z,3.90
2023-03-19T02:18:11.881Z,4.60
2023-03-19T02:20:49.200Z,4.30
2023-03-19T02:23:16.875Z,3.97
2023-03-19T02:25:47.078Z,3.90
2023-03-19T02:28:16.804Z,3.87
2023-03-19T02:30:45.255Z,4.27
2023-03-19T02:33:18.050Z,3.67
2023-03-19T02:35:46.977Z,4.17
2023-03-19T02:38:15.074Z,4.40
2023-03-19T02:40:45.273Z,4.07
2023-03-19T02:43:18.364Z,4.50
2023-03-19T02:45:46.120Z,4.37
2023-03-19T02:48:13.475Z,4.07
2023-03-19T02:50:40.875Z,4.10
2023-03-19T02:53:08.285Z,4.57
2023-03-19T02:55:35.673Z,4.13
2023-03-19T02:58:03.553Z,4.43
2023-03-19T03:00:31.012Z,4.50
2023-03-19T03:02:59.005Z,4.27
2023-03-19T03:05:26.481Z,4.90
2023-03-19T03:07:54.198Z,4.60
2023-03-19T03:10:21.643Z,4.47
2023-03-19T03:12:48.921Z,4.97
2023-03-19T03:15:16.240Z,4.70
2023-03-19T03:17:45.130Z,4.87
2023-03-19T03:20:14.080Z,4.90
2023-03-19T03:22:42.283Z,5.13
2023-03-19T03:25:10.565Z,4.90
2023-03-19T03:27:38.249Z,5.80
2023-03-19T03:30:08.248Z,5.57
2023-03-19T03:32:36.878Z,5.13
2023-03-19T03:35:05.311Z,4.97
2023-03-19T03:37:32.775Z,5.30
2023-03-19T03:40:00.047Z,5.43
2023-03-19T03:42:27.483Z,5.47
2023-03-19T03:44:54.844Z,6.07
2023-03-19T03:47:22.847Z,5.43
2023-03-19T03:49:50.283Z,5.20
2023-03-19T03:52:17.958Z,5.77
2023-03-19T03:54:45.295Z,5.80
2023-03-19T03:57:12.692Z,5.90
2023-03-19T03:59:40.044Z,5.83
2023-03-19T04:02:07.778Z,6.27
2023-03-19T04:04:35.128Z,6.03
2023-03-19T04:07:02.408Z,5.53
2023-03-19T04:09:29.733Z,6.63
2023-03-19T04:11:57.119Z,5.87
2023-03-19T04:14:24.603Z,6.07
2023-03-19T04:16:52.271Z,5.73
2023-03-19T04:19:20.492Z,6.60
2023-03-19T04:21:47.813Z,6.33
2023-03-19T04:24:15.251Z,6.27
2023-03-19T04:26:42.609Z,6.97
2023-03-19T04:29:10.089Z,6.43
2023-03-19T04:31:38.348Z,6.40
2023-03-19T04:34:06.090Z,6.10
2023-03-19T04:36:33.689Z,6.50
2023-03-19T04:39:01.411Z,6.77
2023-03-19T04:41:30.051Z,6.33
2023-03-19T04:43:57.571Z,5.73
2023-03-19T04:46:28.085Z,5.60
2023-03-19T04:48:56.310Z,6.83
2023-03-19T04:51:23.883Z,6.03
2023-03-19T04:53:51.362Z,6.17
2023-03-19T04:56:19.086Z,5.87
2023-03-19T04:58:46.810Z,5.37
2023-03-19T05:01:14.145Z,5.93
2023-03-19T05:03:41.490Z,5.20
2023-03-19T05:06:08.926Z,4.90
2023-03-19T05:08:36.804Z,4.93
2023-03-19T05:11:04.164Z,4.80
2023-03-19T05:13:31.650Z,5.83
2023-03-19T05:15:59.566Z,5.43
2023-03-19T05:18:27.462Z,5.73
2023-03-19T05:20:55.563Z,5.23
2023-03-19T05:23:23.164Z,6.00
2023-03-19T05:25:50.926Z,5.57
2023-03-19T05:28:18.365Z,5.53
2023-03-19T05:30:45.748Z,5.47
2023-03-19T05:33:13.313Z,5.30
2023-03-19T05:35:41.101Z,5.17
2023-03-19T05:38:08.686Z,4.93
2023-03-19T05:40:36.344Z,5.10
2023-03-19T05:43:03.848Z,5.10
2023-03-19T05:45:31.159Z,5.60
2023-03-19T05:47:58.566Z,5.37
2023-03-19T05:50:26.049Z,5.47
2023-03-19T05:52:53.323Z,5.97
2023-03-19T05:55:20.965Z,5.83
2023-03-19T05:57:48.374Z,5.57
2023-03-19T06:00:16.212Z,6.20
2023-03-19T06:02:47.182Z,5.90
2023-03-19T06:05:14.602Z,5.93
2023-03-19T06:07:43.364Z,5.70
2023-03-19T06:10:10.990Z,5.63
2023-03-19T06:12:38.266Z,5.37
2023-03-19T06:15:06.850Z,6.70
2023-03-19T06:17:34.307Z,5.77
2023-03-19T06:20:01.812Z,5.70
2023-03-19T06:22:29.232Z,5.93
2023-03-19T06:24:56.815Z,6.30
2023-03-19T06:27:24.241Z,5.50
2023-03-19T06:29:51.684Z,6.30
2023-03-19T06:32:19.110Z,6.60
2023-03-19T06:34:46.917Z,5.60
2023-03-19T06:37:14.358Z,6.43
2023-03-19T06:39:41.667Z,5.83
2023-03-19T06:42:09.181Z,5.83
2023-03-19T06:44:36.627Z,5.73
2023-03-19T06:47:04.127Z,6.53
2023-03-19T06:49:31.549Z,6.87
2023-03-19T06:51:59.108Z,6.97
2023-03-19T06:54:26.478Z,7.20
2023-03-19T06:56:54.011Z,7.23
2023-03-19T06:59:21.459Z,6.80
2023-03-19T07:01:48.747Z,6.70
2023-03-19T07:04:16.294Z,7.90
2023-03-19T07:06:46.684Z,7.63
2023-03-19T07:09:14.138Z,7.17
2023-03-19T07:11:41.523Z,7.73
2023-03-19T07:14:08.985Z,7.53
2023-03-19T07:16:36.524Z,7.80
2023-03-19T07:19:04.043Z,7.60
2023-03-19T07:21:31.418Z,7.20
2023-03-19T07:23:58.779Z,6.93
2023-03-19T07:26:26.645Z,8.03
2023-03-19T07:28:54.143Z,7.33
2023-03-19T07:31:21.601Z,7.73
2023-03-19T07:33:49.046Z,8.00
2023-03-19T07:36:16.547Z,8.13
2023-03-19T07:38:46.848Z,7.73
2023-03-19T07:41:14.572Z,7.70
2023-03-19T07:43:42.056Z,8.37
2023-03-19T07:46:09.825Z,8.60
2023-03-19T07:48:37.737Z,8.00
2023-03-19T07:51:05.244Z,9.10
2023-03-19T07:53:32.644Z,7.63
2023-03-19T07:56:00.002Z,8.23
2023-03-19T07:58:27.705Z,7.87
2023-03-19T08:00:55.687Z,8.10
2023-03-19T08:03:23.041Z,8.53
2023-03-19T08:05:50.561Z,8.47
2023-03-19T08:08:18.100Z,7.63
2023-03-19T08:10:48.330Z,7.90
2023-03-19T08:13:18.454Z,7.73
2023-03-19T08:15:46.010Z,8.07
2023-03-19T08:18:13.768Z,8.13
2023-03-19T08:20:41.244Z,8.03
2023-03-19T08:23:08.682Z,8.17
2023-03-19T08:25:36.087Z,7.70
2023-03-19T08:28:03.528Z,9.07
2023-03-19T08:30:32.019Z,7.83
2023-03-19T08:33:00.101Z,8.03
2023-03-19T08:35:27.563Z,8.83
2023-03-19T08:37:55.503Z,8.43
2023-03-19T08:40:23.268Z,8.07
2023-03-19T08:42:50.721Z,8.10
2023-03-19T08:45:18.244Z,8.87
2023-03-19T08:47:45.913Z,8.87
2023-03-19T08:50:13.377Z,9.20
2023-03-19T08:52:40.885Z,7.93
2023-03-19T08:55:09.772Z,9.13
2023-03-19T08:57:37.293Z,8.87
2023-03-19T09:00:05.859Z,9.27
2023-03-19T09:02:33.251Z,8.63
2023-03-19T09:05:00.689Z,8.70
2023-03-19T09:07:28.220Z,10.33
2023-03-19T09:09:55.609Z,8.67
2023-03-19T09:12:23.008Z,9.03
2023-03-19T09:14:50.492Z,8.67
2023-03-19T09:17:18.391Z,9.03
2023-03-19T09:19:45.659Z,9.43
2023-03-19T09:22:13.065Z,8.33
2023-03-19T09:24:40.886Z,8.20
2023-03-19T09:27:08.524Z,8.33
2023-03-19T09:29:36.272Z,8.97
2023-03-19T09:32:03.682Z,8.93
2023-03-19T09:34:30.973Z,8.60
2023-03-19T09:36:58.367Z,8.73
2023-03-19T09:39:26.351Z,9.27
2023-03-19T09:42:00.242Z,8.67
2023-03-19T09:44:31.964Z,9.93
2023-03-19T09:47:29.002Z,9.10
2023-03-19T09:50:01.532Z,9.17
2023-03-19T09:52:29.107Z,8.83
2023-03-19T09:54:58.750Z,9.60
2023-03-19T09:57:26.248Z,8.53
2023-03-19T09:59:54.970Z,9.40
2023-03-19T10:02:29.846Z,8.97
2023-03-19T10:05:09.521Z,9.20
2023-03-19T10:07:36.926Z,9.23
2023-03-19T10:10:08.845Z,8.90
2023-03-19T10:12:36.164Z,9.40
2023-03-19T10:15:23.239Z,9.40
2023-03-19T10:17:59.182Z,9.57
2023-03-19T10:20:26.727Z,9.43
2023-03-19T10:23:12.361Z,9.23
2023-03-19T10:25:41.624Z,9.33
2023-03-19T10:28:17.120Z,8.43
2023-03-19T10:30:51.443Z,8.90
2023-03-19T10:33:24.253Z,9.40
2023-03-19T10:35:58.829Z,9.50
2023-03-19T10:38:27.293Z,10.60
2023-03-19T10:41:17.324Z,10.37
2023-03-19T10:43:45.852Z,10.57
2023-03-19T10:46:15.938Z,10.50
2023-03-19T10:48:47.393Z,10.47
2023-03-19T10:51:16.535Z,10.47
2023-03-19T10:53:43.886Z,11.03
2023-03-19T10:56:16.973Z,11.37
2023-03-19T10:58:56.325Z,10.53
2023-03-19T11:01:27.755Z,10.77
2023-03-19T11:03:59.136Z,11.27
2023-03-19T11:06:34.442Z,10.37
2023-03-19T11:09:04.241Z,10.53
2023-03-19T11:11:34.844Z,10.10
2023-03-19T11:14:07.402Z,10.20
2023-03-19T11:16:47.301Z,10.83
2023-03-19T11:19:22.390Z,11.23
2023-03-19T11:22:04.931Z,9.67
2023-03-19T11:24:34.223Z,10.13
2023-03-19T11:27:03.272Z,9.63
2023-03-19T11:29:30.736Z,9.67
2023-03-19T11:32:21.672Z,11.10
2023-03-19T11:34:55.562Z,10.00
2023-03-19T11:37:40.641Z,10.60
2023-03-19T11:40:07.966Z,9.57
2023-03-19T11:42:38.841Z,10.60
2023-03-19T11:45:09.246Z,10.57
2023-03-19T11:47:43.696Z,10.00
2023-03-19T11:50:23.612Z,9.97
2023-03-19T11:52:50.924Z,10.50
2023-03-19T11:55:29.058Z,9.73
2023-03-19T11:58:05.529Z,9.60
2023-03-19T12:00:50.817Z,10.67
2023-03-19T12:03:33.941Z,10.50
2023-03-19T12:06:07.446Z,10.13
2023-03-19T12:08:44.365Z,10.07
2023-03-19T12:11:12.336Z,9.50
2023-03-19T12:13:52.333Z,9.77
2023-03-19T12:16:19.747Z,9.43
2023-03-19T12:19:08.737Z,8.80
2023-03-19T12:21:42.669Z,8.83
2023-03-19T12:24:23.691Z,7.87
2023-03-19T12:27:04.476Z,7.67
2023-03-19T12:29:41.228Z,6.97
2023-03-19T12:32:30.565Z,7.00
2023-03-19T12:34:59.766Z,6.20
2023-03-19T12:37:27.325Z,7.40
2023-03-19T12:40:15.665Z,7.03
2023-03-19T12:42:43.788Z,6.50
2023-03-19T12:45:27.541Z,7.33
2023-03-19T12:47:58.562Z,6.40
2023-03-19T12:50:27.562Z,6.70
2023-03-19T12:52:58.275Z,6.63
2023-03-19T12:55:40.964Z,6.27
2023-03-19T12:58:23.734Z,6.30
2023-03-19T13:00:57.968Z,6.17
2023-03-19T13:03:44.768Z,5.97
2023-03-19T13:06:24.215Z,7.27
2023-03-19T13:09:10.283Z,7.30
2023-03-19T13:11:37.649Z,7.30
2023-03-19T13:14:07.805Z,7.30
2023-03-19T13:16:35.226Z,8.07
2023-03-19T13:19:14.820Z,7.50
2023-03-19T13:21:42.650Z,7.77
2023-03-19T13:24:19.201Z,8.03
2023-03-19T13:26:46.569Z,6.00
2023-03-19T13:29:17.334Z,6.43
2023-03-19T13:31:46.464Z,6.77
2023-03-19T13:34:22.325Z,5.93
2023-03-19T13:36:55.529Z,5.77
2023-03-19T13:39:28.409Z,5.80
2023-03-19T13:42:11.150Z,5.90
2023-03-19T13:45:03.748Z,5.43
2023-03-19T13:47:36.666Z,5.70
2023-03-19T13:50:05.765Z,5.60
2023-03-19T13:52:33.095Z,5.80
2023-03-19T13:55:20.363Z,5.73
2023-03-19T13:58:01.972Z,5.73
2023-03-19T14:00:45.215Z,5.17
2023-03-19T14:03:20.912Z,5.57
2023-03-19T14:05:49.450Z,6.80
2023-03-19T14:08:20.362Z,7.53
2023-03-19T14:10:54.840Z,7.10
2023-03-19T14:13:42.389Z,7.47
2023-03-19T14:16:17.707Z,6.53
2023-03-19T14:18:45.432Z,6.30
2023-03-19T14:21:33.995Z,7.03
2023-03-19T14:24:52.411Z,6.37
2023-03-19T14:27:15.608Z,5.77
2023-03-19T14:29:44.086Z,6.23
2023-03-19T14:32:18.003Z,6.63
2023-03-19T14:34:46.287Z,6.07
2023-03-19T14:37:16.400Z,5.87
2023-03-19T14:39:44.841Z,6.50
2023-03-19T14:42:21.045Z,6.93
2023-03-19T14:45:06.893Z,8.00
2023-03-19T14:47:37.409Z,6.80
2023-03-19T14:50:23.201Z,6.60
2023-03-19T14:53:00.925Z,7.30
2023-03-19T14:55:36.300Z,7.70
2023-03-19T14:58:03.968Z,7.47
2023-03-19T15:00:39.522Z,6.93
2023-03-19T15:03:14.158Z,7.47
2023-03-19T15:05:41.473Z,7.27
2023-03-19T15:08:13.250Z,7.40
2023-03-19T15:10:58.920Z,5.80
2023-03-19T15:13:32.366Z,7.20
2023-03-19T15:16:02.648Z,7.73
2023-03-19T15:18:31.404Z,7.33
2023-03-19T15:20:58.851Z,7.47
2023-03-19T15:23:28.491Z,7.67
2023-03-19T15:26:03.924Z,7.77
2023-03-19T15:28:37.914Z,8.20
2023-03-19T15:31:26.653Z,8.30
2023-03-19T15:33:54.104Z,7.90
2023-03-19T15:36:26.928Z,7.50
2023-03-19T15:38:59.602Z,7.67
2023-03-19T15:41:29.568Z,7.30
2023-03-19T15:43:56.965Z,7.73
2023-03-19T15:46:26.213Z,9.07
2023-03-19T15:48:58.569Z,8.13
2023-03-19T15:51:27.266Z,7.80
2023-03-19T15:53:55.445Z,7.70
2023-03-19T15:56:24.076Z,9.03
2023-03-19T15:58:53.458Z,7.47
2023-03-19T16:01:21.607Z,8.20
2023-03-19T16:03:56.311Z,8.20
2023-03-19T16:06:27.184Z,8.03
2023-03-19T16:08:55.808Z,8.17
2023-03-19T16:11:30.897Z,7.23
2023-03-19T16:13:59.283Z,7.90
2023-03-19T16:16:29.660Z,7.83
2023-03-19T16:19:00.971Z,7.27
2023-03-19T16:21:28.649Z,7.00
2023-03-19T16:24:03.609Z,6.67
2023-03-19T16:26:38.577Z,7.07
2023-03-19T16:29:08.066Z,7.43
2023-03-19T16:31:43.192Z,7.10
2023-03-19T16:34:28.145Z,6.17
2023-03-19T16:36:56.383Z,7.03
2023-03-19T16:39:26.592Z,7.13
2023-03-19T16:42:09.397Z,7.10
2023-03-19T16:44:40.656Z,7.60
2023-03-19T16:47:11.884Z,7.20
2023-03-19T16:49:39.341Z,6.97
2023-03-19T16:52:07.120Z,6.27
2023-03-19T16:54:34.548Z,7.23
2023-03-19T16:57:02.119Z,6.60
2023-03-19T16:59:30.853Z,7.37
2023-03-19T17:01:58.463Z,7.03
2023-03-19T17:04:26.637Z,7.13
2023-03-19T17:06:54.117Z,7.37
2023-03-19T17:09:24.357Z,7.07
2023-03-19T17:11:53.484Z,7.47
2023-03-19T17:14:22.677Z,6.77
2023-03-19T17:16:54.559Z,6.87
2023-03-19T17:19:26.358Z,7.63
2023-03-19T17:21:55.726Z,6.77
2023-03-19T17:24:30.329Z,7.40
2023-03-19T17:27:02.037Z,7.87
2023-03-19T17:29:30.585Z,7.20
2023-03-19T17:32:00.318Z,8.10
2023-03-19T17:34:32.024Z,7.83
2023-03-19T17:37:00.787Z,7.70
2023-03-19T17:39:30.170Z,7.90
2023-03-19T17:41:57.521Z,7.30
2023-03-19T17:44:25.247Z,6.27
2023-03-19T17:46:54.093Z,6.33
2023-03-19T17:49:23.765Z,6.53
2023-03-19T17:51:51.959Z,6.33
2023-03-19T17:54:19.461Z,6.70
2023-03-19T17:56:46.860Z,6.50
2023-03-19T17:59:14.292Z,6.53
2023-03-19T18:01:47.294Z,6.73
2023-03-19T18:04:16.075Z,6.57
2023-03-19T18:06:45.779Z,7.20
2023-03-19T18:09:24.312Z,6.70
2023-03-19T18:11:52.010Z,6.17
2023-03-19T18:14:19.485Z,7.30
2023-03-19T18:16:47.051Z,6.33
2023-03-19T18:19:21.189Z,6.77
2023-03-19T18:21:48.608Z,6.17
2023-03-19T18:24:16.088Z,5.97
2023-03-19T18:26:43.487Z,6.40
2023-03-19T18:29:10.886Z,5.97
2023-03-19T18:31:38.549Z,7.20
2023-03-19T18:34:09.205Z,5.70
2023-03-19T18:36:37.166Z,6.67
2023-03-19T18:39:04.653Z,5.97
2023-03-19T18:41:32.247Z,6.50
2023-03-19T18:43:59.728Z,7.17
2023-03-19T18:46:28.966Z,7.67
2023-03-19T18:48:58.485Z,7.30
2023-03-19T18:51:25.888Z,6.60
2023-03-19T18:53:53.237Z,6.23
2023-03-19T18:56:28.004Z,6.10
2023-03-19T18:58:56.759Z,6.70
2023-03-19T19:01:24.625Z,6.23
2023-03-19T19:03:52.761Z,6.80
2023-03-19T19:06:33.306Z,6.90
2023-03-19T19:09:12.888Z,6.43
2023-03-19T19:11:41.368Z,6.37
2023-03-19T19:14:11.444Z,6.17
2023-03-19T19:16:40.546Z,5.90
2023-03-19T19:19:15.792Z,6.83
2023-03-19T19:21:43.131Z,6.43
2023-03-19T19:24:10.679Z,6.70
2023-03-19T19:26:38.146Z,7.03
2023-03-19T19:29:06.241Z,6.37
2023-03-19T19:31:35.951Z,7.07
2023-03-19T19:34:03.677Z,5.63
2023-03-19T19:36:30.993Z,6.30
2023-03-19T19:39:03.933Z,6.60
2023-03-19T19:41:33.954Z,6.27
2023-03-19T19:44:03.519Z,6.80
2023-03-19T19:46:32.138Z,6.30
2023-03-19T19:49:00.002Z,6.20
2023-03-19T19:51:29.459Z,5.70
2023-03-19T19:53:56.807Z,5.07
2023-03-19T19:56:25.783Z,5.13
2023-03-19T19:58:54.682Z,5.07
2023-03-19T20:01:23.197Z,4.67
2023-03-19T20:03:50.998Z,4.90
2023-03-19T20:06:18.536Z,4.37
2023-03-19T20:08:48.413Z,5.07
2023-03-19T20:11:17.246Z,5.00
2023-03-19T20:13:50.069Z,4.60
2023-03-19T20:16:18.098Z,4.23
2023-03-19T20:18:45.924Z,4.20
2023-03-19T20:21:13.833Z,4.93
2023-03-19T20:23:42.962Z,4.07
2023-03-19T20:26:20.902Z,4.10
2023-03-19T20:28:48.323Z,4.40
2023-03-19T20:31:22.045Z,4.43
2023-03-19T20:33:49.682Z,4.17
2023-03-19T20:36:18.588Z,4.53
2023-03-19T20:38:46.299Z,4.57
2023-03-19T20:41:24.008Z,4.03
2023-03-19T20:43:51.700Z,4.00
2023-03-19T20:46:20.549Z,5.07
2023-03-19T20:48:48.822Z,4.33
2023-03-19T20:51:20.101Z,4.83
2023-03-19T20:53:49.936Z,4.00
2023-03-19T20:56:18.442Z,4.27
2023-03-19T20:58:46.643Z,4.07
2023-03-19T21:01:15.681Z,3.90
2023-03-19T21:03:43.447Z,4.30
2023-03-19T21:06:18.697Z,4.23
2023-03-19T21:08:48.242Z,4.40
2023-03-19T21:11:18.079Z,4.40
2023-03-19T21:13:53.299Z,4.13
2023-03-19T21:16:25.698Z,4.63
2023-03-19T21:18:54.077Z,4.70
2023-03-19T21:21:29.909Z,3.80
2023-03-19T21:24:08.173Z,4.33
2023-03-19T21:26:37.407Z,4.20
2023-03-19T21:29:07.412Z,3.57
2023-03-19T21:31:35.056Z,4.40
2023-03-19T21:34:02.391Z,3.23
2023-03-19T21:36:29.767Z,3.50
2023-03-19T21:38:57.466Z,3.27
2023-03-19T21:41:30.401Z,3.57
2023-03-19T21:43:58.449Z,3.03
2023-03-19T21:46:27.334Z,3.30
2023-03-19T21:48:55.300Z,3.27
2023-03-19T21:51:23.712Z,3.00
2023-03-19T21:53:51.060Z,3.50
2023-03-19T21:56:21.933Z,3.30
2023-03-19T21:58:50.885Z,3.37
2023-03-19T22:01:19.601Z,3.70
2023-03-19T22:03:47.228Z,2.97
2023-03-19T22:06:14.653Z,3.23
2023-03-19T22:08:44.679Z,3.27
2023-03-19T22:11:26.563Z,3.43
2023-03-19T22:13:54.417Z,3.30
2023-03-19T22:16:25.372Z,3.27
2023-03-19T22:18:53.528Z,2.70
2023-03-19T22:21:22.522Z,3.17
2023-03-19T22:23:50.403Z,3.23
2023-03-19T22:26:27.297Z,3.30
2023-03-19T22:28:55.534Z,3.70
2023-03-19T22:31:23.000Z,3.30
2023-03-19T22:33:50.685Z,3.83
2023-03-19T22:36:18.262Z,3.67
2023-03-19T22:38:47.050Z,3.57
2023-03-19T22:41:17.420Z,3.40
2023-03-19T22:43:46.227Z,3.60
2023-03-19T22:46:15.618Z,3.80
2023-03-19T22:48:44.218Z,3.97
2023-03-19T22:51:15.447Z,3.77
2023-03-19T22:53:42.732Z,3.23
2023-03-19T22:56:11.489Z,3.83
2023-03-19T22:58:39.172Z,3.23
2023-03-19T23:01:22.616Z,3.23
2023-03-19T23:03:51.142Z,3.37
2023-03-19T23:06:29.085Z,2.93
2023-03-19T23:08:57.490Z,2.90
2023-03-19T23:11:24.939Z,2.90
2023-03-19T23:13:53.247Z,2.50
2023-03-19T23:16:23.708Z,2.57
2023-03-19T23:18:51.527Z,2.40
2023-03-19T23:21:19.540Z,2.77
2023-03-19T23:23:47.095Z,3.40
2023-03-19T23:26:26.832Z,2.30
2023-03-19T23:28:54.603Z,2.43
2023-03-19T23:31:22.032Z,3.23
2023-03-19T23:33:49.627Z,2.60
2023-03-19T23:36:17.930Z,2.93
2023-03-19T23:38:45.284Z,3.20
2023-03-19T23:41:23.245Z,3.47
2023-03-19T23:43:51.803Z,3.17
2023-03-19T23:46:19.970Z,3.20
2023-03-19T23:48:47.373Z,3.37
2023-03-19T23:51:16.041Z,3.20
2023-03-19T23:53:43.696Z,3.53
2023-03-19T23:56:25.522Z,3.53
2023-03-19T23:58:54.134Z,3.03
